Terminal Aerodrome Forecast
Issued by NWS Portland, OR

Home | Current Version | Previous Version | Text Only | Print | Product List | Glossary On
Versions: 1 2 3 4 5 6 7 8 9 10 11 12 13 14 15 16 17 18 19 20 21 22 23 24 25 26 27 28 29 30 31 32 33 34 35 36 37 38 39 40 41
495
FTUS46 KPQR 050700 AAA
TAFAST
TAF AMD
KAST 050700Z 0507/0606 33008KT P6SM SCT035 OVC045
     FM051200 33008KT P6SM BKN025 OVC035
     FM051700 33009KT P6SM SCT025 BKN035
     FM052000 32013G18KT P6SM SCT035 BKN050
     FM060300 32009KT P6SM SCT035 SCT050=

USA.gov is the U.S. government's official web portal to all federal, state and local government web resources and services.